createdAt,value
2022-10-11T00:01:06.388Z,1.40
2022-10-11T00:05:09.247Z,1.27
2022-10-11T00:09:11.580Z,1.25
2022-10-11T00:13:13.267Z,2.75
2022-10-11T00:17:14.917Z,1.40
2022-10-11T00:21:17.187Z,1.05
2022-10-11T00:25:19.239Z,1.08
2022-10-11T00:29:20.892Z,1.67
2022-10-11T00:33:22.653Z,1.25
2022-10-11T00:37:24.326Z,1.02
2022-10-11T00:41:26.006Z,1.00
2022-10-11T00:45:27.647Z,1.70
2022-10-11T00:49:35.009Z,0.90
2022-10-11T00:57:41.824Z,1.00
2022-10-11T01:01:43.779Z,1.05
2022-10-11T01:05:46.178Z,1.30
2022-10-11T01:09:47.853Z,1.33
2022-10-11T01:13:58.528Z,1.40
2022-10-11T01:18:35.705Z,1.85
2022-10-11T01:22:56.135Z,1.10
2022-10-11T01:27:28.084Z,1.30
2022-10-11T01:31:40.150Z,1.60
2022-10-11T01:35:48.631Z,1.40
2022-10-11T01:40:21.315Z,1.50
2022-10-11T01:44:24.886Z,1.65
2022-10-11T01:48:26.631Z,1.37
2022-10-11T01:52:33.821Z,1.25
2022-10-11T02:01:12.383Z,1.70
2022-10-11T02:05:17.094Z,1.42
2022-10-11T02:09:36.446Z,1.98
2022-10-11T02:13:40.933Z,1.98
2022-10-11T02:17:49.263Z,2.50
2022-10-11T02:21:56.729Z,2.30
2022-10-11T02:25:59.354Z,2.15
2022-10-11T02:30:02.670Z,3.20
2022-10-11T02:34:24.370Z,4.18
2022-10-11T02:38:33.976Z,3.92
2022-10-11T02:43:01.528Z,4.10
2022-10-11T02:47:04.330Z,3.70
2022-10-11T02:51:06.186Z,4.65
2022-10-11T02:55:08.556Z,4.90
2022-10-11T02:59:10.235Z,4.32
2022-10-11T03:03:12.002Z,4.90
2022-10-11T03:07:14.545Z,4.00
2022-10-11T03:11:16.258Z,4.53
2022-10-11T03:15:17.953Z,5.47
2022-10-11T03:19:19.700Z,5.22
2022-10-11T03:23:21.357Z,5.43
2022-10-11T03:27:23.042Z,6.18
2022-10-11T03:31:24.880Z,6.25
2022-10-11T03:35:26.559Z,4.90
2022-10-11T03:39:28.247Z,5.40
2022-10-11T03:43:30.043Z,6.43
2022-10-11T03:47:32.169Z,5.18
2022-10-11T03:51:33.811Z,5.62
2022-10-11T03:55:37.384Z,6.35
2022-10-11T03:59:39.145Z,5.95
2022-10-11T04:03:40.830Z,5.47
2022-10-11T04:07:42.570Z,5.65
2022-10-11T04:11:44.239Z,6.60
2022-10-11T04:15:47.037Z,4.82
2022-10-11T04:19:48.968Z,4.43
2022-10-11T04:23:50.644Z,4.87
2022-10-11T04:27:52.315Z,4.93
2022-10-11T04:31:54.002Z,4.75
2022-10-11T04:35:56.967Z,4.70
2022-10-11T04:39:58.623Z,4.93
2022-10-11T04:44:01.057Z,4.37
2022-10-11T04:48:02.739Z,4.35
2022-10-11T04:52:04.444Z,4.57
2022-10-11T04:56:10.846Z,4.75
2022-10-11T05:00:13.060Z,4.27
2022-10-11T05:04:14.799Z,3.92
2022-10-11T05:08:16.820Z,4.32
2022-10-11T05:12:18.519Z,4.25
2022-10-11T05:16:20.213Z,4.97
2022-10-11T05:20:21.868Z,4.72
2022-10-11T05:24:23.976Z,5.12
2022-10-11T05:28:26.734Z,6.30
2022-10-11T05:32:28.408Z,6.70
2022-10-11T05:36:30.048Z,6.30
2022-10-11T05:40:31.866Z,5.62
2022-10-11T05:44:33.508Z,6.65
2022-10-11T05:48:35.226Z,5.57
2022-10-11T05:52:37.111Z,5.78
2022-10-11T05:56:38.825Z,6.57
2022-10-11T06:00:41.098Z,6.95
2022-10-11T06:04:42.726Z,6.35
2022-10-11T06:08:45.203Z,7.40
2022-10-11T06:12:46.899Z,6.05
2022-10-11T06:16:48.846Z,13.15
2022-10-11T06:20:50.544Z,8.75
2022-10-11T06:24:52.280Z,6.50
2022-10-11T06:28:54.013Z,6.20
2022-10-11T06:32:55.679Z,7.03
2022-10-11T06:36:57.416Z,8.10
2022-10-11T06:41:10.100Z,7.87
2022-10-11T06:45:11.728Z,30.58
2022-10-11T06:49:13.410Z,9.77
2022-10-11T06:53:15.070Z,9.68
2022-10-11T06:57:16.787Z,8.75
2022-10-11T07:01:21.189Z,7.68
2022-10-11T07:05:22.962Z,8.07
2022-10-11T07:09:24.734Z,9.75
2022-10-11T07:13:26.392Z,10.30
2022-10-11T07:17:28.131Z,10.27
2022-10-11T07:21:31.672Z,10.45
2022-10-11T07:25:33.334Z,11.27
2022-10-11T07:29:35.112Z,10.93
2022-10-11T07:33:36.953Z,12.95
2022-10-11T07:37:38.636Z,13.65
2022-10-11T07:41:45.475Z,15.10
2022-10-11T07:49:51.930Z,15.02
2022-10-11T07:53:55.676Z,15.77
2022-10-11T07:57:57.849Z,15.07
2022-10-11T08:01:59.635Z,14.05
2022-10-11T08:06:08.066Z,15.00
2022-10-11T08:10:10.570Z,16.65
2022-10-11T08:14:12.332Z,20.42
2022-10-11T08:18:14.027Z,20.45
2022-10-11T08:22:15.668Z,21.67
2022-10-11T08:26:17.381Z,20.65
2022-10-11T08:30:19.100Z,21.23
2022-10-11T08:34:20.870Z,19.92
2022-10-11T08:38:23.096Z,19.65
2022-10-11T08:42:24.709Z,19.55
2022-10-11T08:46:31.837Z,19.55
2022-10-11T08:50:34.346Z,18.05
2022-10-11T08:54:45.252Z,15.73
2022-10-11T08:59:04.016Z,24.05
2022-10-11T09:03:27.661Z,16.50
2022-10-11T09:07:34.541Z,15.07
2022-10-11T09:12:12.550Z,14.87
2022-10-11T09:16:17.192Z,17.23
2022-10-11T09:20:43.846Z,17.05
2022-10-11T09:24:59.709Z,18.17
2022-10-11T09:29:24.656Z,15.90
2022-10-11T09:33:36.407Z,15.25
2022-10-11T09:37:50.095Z,14.02
2022-10-11T09:42:09.210Z,14.90
2022-10-11T09:46:20.515Z,15.68
2022-10-11T09:50:29.547Z,15.48
2022-10-11T09:54:43.460Z,16.67
2022-10-11T09:58:45.321Z,19.23
2022-10-11T10:02:58.055Z,22.20
2022-10-11T10:07:12.798Z,24.33
2022-10-11T10:11:14.842Z,23.40
2022-10-11T10:15:19.786Z,24.95
2022-10-11T10:19:21.850Z,25.90
2022-10-11T10:23:27.757Z,24.08
2022-10-11T10:27:30.897Z,24.95
2022-10-11T10:31:55.317Z,24.10
2022-10-11T10:36:18.370Z,25.90
2022-10-11T10:40:31.387Z,24.37
2022-10-11T10:44:33.020Z,23.95
2022-10-11T10:49:23.559Z,24.25
2022-10-11T10:53:21.432Z,23.77
2022-10-11T10:57:34.780Z,23.48
2022-10-11T11:02:06.776Z,21.17
2022-10-11T11:07:00.878Z,19.77
2022-10-11T11:11:02.487Z,20.25
2022-10-11T11:15:32.587Z,17.45
2022-10-11T11:20:03.130Z,18.27
2022-10-11T11:24:35.281Z,17.35
2022-10-11T11:29:04.810Z,17.90
2022-10-11T11:33:36.317Z,18.48
2022-10-11T11:37:41.673Z,17.17
2022-10-11T11:42:00.582Z,16.08
2022-10-11T11:46:09.514Z,15.75
2022-10-11T11:50:23.682Z,10.32
2022-10-11T11:54:49.192Z,9.27
2022-10-11T11:59:02.939Z,7.93
2022-10-11T12:03:12.401Z,13.10
2022-10-11T12:07:18.321Z,9.85
2022-10-11T12:11:27.234Z,8.52
2022-10-11T12:15:30.255Z,10.35
2022-10-11T12:19:32.070Z,9.00
2022-10-11T12:23:40.393Z,8.85
2022-10-11T12:27:47.307Z,8.70
2022-10-11T12:31:58.982Z,8.45
2022-10-11T12:36:05.871Z,7.45
2022-10-11T12:40:33.328Z,7.55
2022-10-11T12:44:35.056Z,8.18
2022-10-11T12:48:46.649Z,7.82
2022-10-11T12:53:31.487Z,6.90
2022-10-11T12:57:58.975Z,6.82
2022-10-11T13:02:00.763Z,6.57
2022-10-11T13:06:14.748Z,7.15
2022-10-11T13:10:24.091Z,6.87
2022-10-11T13:14:27.583Z,7.12
2022-10-11T13:18:29.204Z,5.60
2022-10-11T13:22:35.222Z,5.93
2022-10-11T13:26:37.669Z,6.62
2022-10-11T13:30:44.069Z,7.45
2022-10-11T13:34:48.872Z,6.33
2022-10-11T13:38:56.833Z,5.82
2022-10-11T13:42:59.460Z,5.72
2022-10-11T13:47:01.307Z,4.57
2022-10-11T13:51:05.879Z,6.68
2022-10-11T13:55:14.680Z,5.80
2022-10-11T13:59:21.133Z,9.05
2022-10-11T14:03:25.153Z,5.57
2022-10-11T14:07:28.117Z,6.20
2022-10-11T14:11:39.178Z,5.75
2022-10-11T14:15:40.844Z,4.97
2022-10-11T14:19:44.012Z,5.30
2022-10-11T14:23:54.676Z,5.32
2022-10-11T14:27:57.481Z,4.78
2022-10-11T14:32:10.654Z,4.75
2022-10-11T14:36:12.342Z,4.28
2022-10-11T14:40:18.685Z,3.60
2022-10-11T14:44:21.808Z,3.37
2022-10-11T14:48:42.881Z,2.78
2022-10-11T14:52:46.496Z,2.30
2022-10-11T14:56:49.051Z,2.72
2022-10-11T15:00:50.705Z,2.47
2022-10-11T15:04:52.374Z,2.25
2022-10-11T15:08:54.136Z,2.58
2022-10-11T15:12:56.785Z,2.33
2022-10-11T15:16:58.580Z,2.22
2022-10-11T15:21:00.528Z,1.73
2022-10-11T15:25:02.232Z,2.37
2022-10-11T15:29:04.017Z,2.15
2022-10-11T15:33:05.659Z,2.33
2022-10-11T15:37:07.330Z,2.40
2022-10-11T15:41:15.477Z,2.05
2022-10-11T15:45:18.869Z,2.80
2022-10-11T15:49:20.530Z,2.35
2022-10-11T15:53:28.605Z,2.55
2022-10-11T15:57:30.239Z,2.45
2022-10-11T16:01:31.972Z,2.92
2022-10-11T16:05:33.724Z,2.00
2022-10-11T16:09:35.377Z,2.30
2022-10-11T16:13:37.068Z,2.33
2022-10-11T16:17:38.815Z,2.35
2022-10-11T16:21:40.649Z,2.22
2022-10-11T16:25:42.424Z,2.33
2022-10-11T16:29:44.110Z,2.35
2022-10-11T16:33:46.336Z,2.83
2022-10-11T16:37:48.210Z,2.35
2022-10-11T16:41:49.959Z,19.77
2022-10-11T16:45:57.328Z,30.58
2022-10-11T16:54:01.169Z,4.30
2022-10-11T16:58:02.868Z,3.35
2022-10-11T17:02:05.628Z,3.40
2022-10-11T17:06:08.383Z,3.35
2022-10-11T17:10:10.611Z,2.83
2022-10-11T17:14:13.326Z,2.95
2022-10-11T17:18:16.244Z,2.92
2022-10-11T17:22:19.682Z,3.00
2022-10-11T17:26:26.120Z,3.08
2022-10-11T17:30:28.344Z,2.67
2022-10-11T17:34:30.011Z,2.87
2022-10-11T17:38:31.646Z,2.05
2022-10-11T17:42:33.347Z,2.65
2022-10-11T17:46:35.411Z,2.53
2022-10-11T17:50:41.129Z,2.30
2022-10-11T17:54:42.774Z,2.35
2022-10-11T17:58:45.286Z,2.58
2022-10-11T18:02:47.566Z,3.03
2022-10-11T18:06:49.643Z,3.75
2022-10-11T18:10:51.434Z,4.20
2022-10-11T18:14:53.105Z,3.62
2022-10-11T18:18:57.188Z,3.58
2022-10-11T18:22:59.384Z,3.83
2022-10-11T18:27:01.079Z,3.67
2022-10-11T18:31:17.365Z,4.18
2022-10-11T18:35:19.425Z,2.87
2022-10-11T18:39:22.022Z,3.08
2022-10-11T18:43:23.768Z,2.92
2022-10-11T18:47:25.500Z,3.28
2022-10-11T18:51:34.071Z,2.70
2022-10-11T18:55:35.719Z,2.60
2022-10-11T18:59:37.351Z,3.10
2022-10-11T19:03:39.171Z,2.75
2022-10-11T19:07:42.544Z,2.78
2022-10-11T19:11:44.488Z,2.70
2022-10-11T19:15:46.521Z,2.45
2022-10-11T19:19:49.071Z,2.92
2022-10-11T19:23:51.227Z,3.37
2022-10-11T19:27:52.864Z,3.20
2022-10-11T19:31:59.611Z,3.17
2022-10-11T19:36:03.610Z,2.87
2022-10-11T19:40:05.895Z,3.30
2022-10-11T19:44:07.608Z,3.22
2022-10-11T19:48:10.076Z,2.72
2022-10-11T19:52:13.203Z,3.15
2022-10-11T19:56:16.979Z,2.87
2022-10-11T20:00:18.809Z,2.95
2022-10-11T20:04:50.981Z,3.53
2022-10-11T20:08:44.399Z,3.08
2022-10-11T20:12:46.197Z,3.17
2022-10-11T20:16:50.464Z,3.42
2022-10-11T20:21:00.319Z,2.95
2022-10-11T20:25:02.028Z,2.72
2022-10-11T20:29:03.775Z,3.10
2022-10-11T20:33:05.430Z,3.42
2022-10-11T20:37:07.062Z,2.70
2022-10-11T20:41:11.647Z,3.45
2022-10-11T20:45:13.313Z,2.90
2022-10-11T20:49:14.999Z,4.20
2022-10-11T20:53:16.680Z,5.03
2022-10-11T20:57:18.416Z,4.10
2022-10-11T21:01:22.686Z,3.78
2022-10-11T21:05:24.395Z,3.90
2022-10-11T21:09:26.036Z,4.00
2022-10-11T21:13:28.335Z,4.75
2022-10-11T21:17:30.079Z,6.40
2022-10-11T21:21:31.779Z,5.28
2022-10-11T21:25:34.492Z,4.68
2022-10-11T21:29:36.176Z,5.47
2022-10-11T21:33:38.102Z,4.50
2022-10-11T21:37:39.798Z,5.00
2022-10-11T21:41:42.239Z,3.78
2022-10-11T21:45:44.116Z,3.50
2022-10-11T21:49:45.764Z,3.80
2022-10-11T21:53:47.459Z,4.10
2022-10-11T21:57:49.106Z,3.92
2022-10-11T22:01:50.898Z,3.53
2022-10-11T22:05:52.654Z,3.50
2022-10-11T22:09:54.347Z,3.95
2022-10-11T22:13:56.178Z,3.50
2022-10-11T22:17:57.833Z,2.70
2022-10-11T22:21:59.540Z,3.30
2022-10-11T22:26:09.435Z,3.50
2022-10-11T22:30:11.397Z,3.12
2022-10-11T22:34:13.083Z,2.85
2022-10-11T22:38:14.735Z,3.35
2022-10-11T22:42:16.435Z,3.70
2022-10-11T22:46:18.328Z,3.30
2022-10-11T22:50:19.988Z,2.80
2022-10-11T22:54:21.765Z,3.08
2022-10-11T22:58:23.449Z,2.65
2022-10-11T23:02:25.152Z,3.17
2022-10-11T23:06:26.872Z,2.62
2022-10-11T23:10:28.884Z,2.60
2022-10-11T23:14:30.546Z,2.55
2022-10-11T23:18:32.214Z,3.33
2022-10-11T23:22:33.854Z,3.80
2022-10-11T23:26:35.496Z,3.00
2022-10-11T23:30:39.953Z,2.72
2022-10-11T23:34:41.800Z,2.87
2022-10-11T23:38:43.950Z,2.70
2022-10-11T23:42:45.616Z,3.30
2022-10-11T23:46:47.692Z,3.10
2022-10-11T23:50:49.507Z,2.70
2022-10-11T23:54:51.205Z,3.03
2022-10-11T23:58:52.963Z,2.53
